createdAt,value
2023-01-25T00:00:47.498Z,0.52
2023-01-25T00:01:47.621Z,0.53
2023-01-25T00:02:47.558Z,0.52
2023-01-25T00:03:47.374Z,0.52
2023-01-25T00:04:47.338Z,0.53
2023-01-25T00:05:47.294Z,0.52
2023-01-25T00:06:47.264Z,0.52
2023-01-25T01:39:41.433Z,0.51
2023-01-25T01:40:41.386Z,0.51
2023-01-25T01:41:41.328Z,0.50
2023-01-25T01:42:41.316Z,0.51
2023-01-25T01:43:41.252Z,0.50
2023-01-25T01:44:41.220Z,0.51
2023-01-25T01:45:41.218Z,0.51
2023-01-25T01:46:41.119Z,0.50
2023-01-25T01:47:41.084Z,0.51
2023-01-25T01:48:41.041Z,0.50
2023-01-25T01:49:41.024Z,0.52
2023-01-25T01:50:40.956Z,0.51
2023-01-25T01:51:40.938Z,0.51
2023-01-25T01:52:40.870Z,0.51
2023-01-25T01:53:40.831Z,0.51
2023-01-25T01:54:40.798Z,0.50
2023-01-25T01:55:40.752Z,0.51
2023-01-25T01:56:40.707Z,0.51
2023-01-25T01:57:40.684Z,0.52
2023-01-25T01:58:40.651Z,0.51
2023-01-25T01:59:40.600Z,0.50
2023-01-25T02:00:40.556Z,0.50
2023-01-25T02:01:40.605Z,0.51
2023-01-25T02:02:40.551Z,0.51
2023-01-25T02:03:40.437Z,0.51
2023-01-25T02:04:40.410Z,0.51
2023-01-25T02:05:40.374Z,0.51
2023-01-25T02:06:40.337Z,0.51
2023-01-25T02:07:40.293Z,0.51
2023-01-25T02:08:40.256Z,0.50
2023-01-25T02:09:40.219Z,0.51
2023-01-25T02:10:40.174Z,0.50
2023-01-25T02:11:40.139Z,0.51
2023-01-25T02:12:40.084Z,0.51
2023-01-25T02:13:40.067Z,0.51
2023-01-25T02:14:40.058Z,0.51
2023-01-25T02:15:39.979Z,0.52
2023-01-25T02:16:39.929Z,0.51
2023-01-25T02:17:39.931Z,0.50
2023-01-25T02:18:39.845Z,0.51
2023-01-25T02:19:39.816Z,0.51
2023-01-25T02:20:39.776Z,0.51
2023-01-25T02:21:39.757Z,0.51
2023-01-25T02:22:39.699Z,0.52
2023-01-25T02:23:39.651Z,0.50
2023-01-25T02:24:39.611Z,0.51
2023-01-25T02:25:39.612Z,0.51
2023-01-25T02:26:39.539Z,0.51
2023-01-25T02:27:39.534Z,0.50
2023-01-25T02:28:39.530Z,0.51
2023-01-25T02:29:39.494Z,0.51
2023-01-25T02:30:39.474Z,0.51
2023-01-25T02:31:39.548Z,0.52
2023-01-25T02:32:39.352Z,0.51
2023-01-25T02:33:39.312Z,0.51
2023-01-25T02:34:39.276Z,0.51
2023-01-25T02:35:39.253Z,0.51
2023-01-25T02:36:39.222Z,0.51
2023-01-25T02:37:39.181Z,0.51
2023-01-25T02:38:39.146Z,0.51
2023-01-25T02:39:39.105Z,0.51
2023-01-25T02:40:39.073Z,0.51
2023-01-25T02:41:39.045Z,0.51
2023-01-25T02:42:39.021Z,0.50
2023-01-25T02:43:38.985Z,0.51
2023-01-25T02:44:38.949Z,0.51
2023-01-25T02:45:38.916Z,0.51
2023-01-25T02:46:39.010Z,0.51
2023-01-25T02:47:38.855Z,0.51
2023-01-25T02:48:38.829Z,0.51
2023-01-25T02:49:38.796Z,0.51
2023-01-25T02:50:38.754Z,0.51
2023-01-25T02:51:38.713Z,0.51
2023-01-25T02:52:38.682Z,0.51
2023-01-25T02:53:38.642Z,0.51
2023-01-25T02:54:38.616Z,0.51
2023-01-25T02:55:38.562Z,0.51
2023-01-25T02:56:38.522Z,0.50
2023-01-25T02:57:38.479Z,0.51
2023-01-25T02:58:38.445Z,0.52
2023-01-25T02:59:38.397Z,0.51
2023-01-25T03:00:38.367Z,0.52
2023-01-25T03:01:38.448Z,0.52
2023-01-25T03:02:38.343Z,0.51
2023-01-25T03:03:38.244Z,0.51
2023-01-25T03:04:38.208Z,0.51
2023-01-25T03:05:38.175Z,0.50
2023-01-25T03:06:38.140Z,0.51
2023-01-25T03:07:38.094Z,0.51
2023-01-25T03:08:38.053Z,0.50
2023-01-25T03:09:38.005Z,0.51
2023-01-25T03:10:37.972Z,0.51
2023-01-25T03:11:37.941Z,0.51
2023-01-25T03:12:37.906Z,0.51
2023-01-25T03:13:37.870Z,0.52
2023-01-25T03:14:37.824Z,0.51
2023-01-25T03:15:37.788Z,0.51
2023-01-25T03:16:37.805Z,0.52
2023-01-25T03:17:37.707Z,0.51
2023-01-25T03:18:37.703Z,0.51
2023-01-25T03:19:37.619Z,0.52
2023-01-25T03:20:37.585Z,0.52
2023-01-25T03:21:37.554Z,0.51
2023-01-25T03:22:37.516Z,0.51
2023-01-25T03:23:37.473Z,0.51
2023-01-25T03:24:37.436Z,0.51
2023-01-25T03:25:37.428Z,0.52
2023-01-25T03:26:37.359Z,0.51
2023-01-25T03:27:37.323Z,0.51
2023-01-25T03:28:37.292Z,0.51
2023-01-25T03:29:37.255Z,0.52
2023-01-25T03:30:37.225Z,0.52
2023-01-25T03:31:37.337Z,0.51
2023-01-25T03:32:37.132Z,0.50
2023-01-25T03:33:37.111Z,0.51
2023-01-25T03:34:37.087Z,0.51
2023-01-25T03:35:37.017Z,0.52
2023-01-25T03:36:36.972Z,0.51
2023-01-25T03:37:36.933Z,0.51
2023-01-25T03:38:36.896Z,0.50
2023-01-25T03:39:36.854Z,0.51
2023-01-25T03:40:36.816Z,0.51
2023-01-25T03:41:36.781Z,0.51
2023-01-25T03:42:36.744Z,0.52
2023-01-25T03:43:36.706Z,0.52
2023-01-25T03:44:36.679Z,0.51
2023-01-25T03:45:36.629Z,0.50
2023-01-25T03:46:36.651Z,0.52
2023-01-25T03:47:36.559Z,0.51
2023-01-25T03:48:36.519Z,0.52
2023-01-25T03:49:36.480Z,0.52
2023-01-25T03:50:36.471Z,0.51
2023-01-25T03:51:36.413Z,0.51
2023-01-25T03:52:36.356Z,0.52
2023-01-25T03:53:36.313Z,0.51
2023-01-25T03:54:36.273Z,0.51
2023-01-25T03:55:36.240Z,0.52
2023-01-25T03:56:36.225Z,0.52
2023-01-25T03:57:36.203Z,0.51
2023-01-25T03:58:36.113Z,0.51
2023-01-25T03:59:36.077Z,0.52
2023-01-25T04:00:36.049Z,0.51
2023-01-25T04:01:35.987Z,0.52
2023-01-25T04:02:35.945Z,0.52
2023-01-25T04:03:35.927Z,0.52
2023-01-25T04:04:35.854Z,0.51
2023-01-25T04:05:35.814Z,0.51
2023-01-25T04:06:35.810Z,0.52
2023-01-25T04:07:35.734Z,0.53
2023-01-25T04:08:35.698Z,0.52
2023-01-25T04:09:35.664Z,0.53
2023-01-25T04:10:35.627Z,0.53
2023-01-25T04:11:35.599Z,0.53
2023-01-25T04:12:35.562Z,0.52
2023-01-25T04:13:35.520Z,0.52
2023-01-25T04:14:44.370Z,0.53
2023-01-25T04:15:35.442Z,0.53
2023-01-25T04:16:35.502Z,0.53
2023-01-25T04:17:35.373Z,0.54
2023-01-25T04:18:35.328Z,0.54
2023-01-25T04:19:35.289Z,0.53
2023-01-25T04:20:35.250Z,0.52
2023-01-25T04:21:35.240Z,0.53
2023-01-25T04:22:35.210Z,0.53
2023-01-25T04:23:35.136Z,0.53
2023-01-25T04:24:35.098Z,0.54
2023-01-25T04:25:35.065Z,0.53
2023-01-25T04:26:35.032Z,0.53
2023-01-25T04:27:35.006Z,0.53
2023-01-25T04:28:34.999Z,0.53
2023-01-25T04:29:41.104Z,0.53
2023-01-25T04:30:34.904Z,0.54
2023-01-25T04:31:34.940Z,0.54
2023-01-25T04:32:35.013Z,0.54
2023-01-25T04:33:34.795Z,0.54
2023-01-25T04:34:34.777Z,0.54
2023-01-25T04:35:34.721Z,0.54
2023-01-25T04:36:34.684Z,0.53
2023-01-25T04:37:34.640Z,0.53
2023-01-25T04:38:34.632Z,0.54
2023-01-25T04:39:34.575Z,0.54
2023-01-25T04:40:34.532Z,0.54
2023-01-25T04:41:34.524Z,0.54
2023-01-25T04:42:34.457Z,0.53
2023-01-25T04:43:34.418Z,0.53
2023-01-25T04:44:34.377Z,0.53
2023-01-25T04:45:34.380Z,0.54
2023-01-25T04:46:34.298Z,0.54
2023-01-25T04:47:34.301Z,0.54
2023-01-25T04:48:34.224Z,0.53
2023-01-25T04:49:34.169Z,0.53
2023-01-25T04:50:34.139Z,0.53
2023-01-25T04:51:34.089Z,0.53
2023-01-25T04:52:34.047Z,0.55
2023-01-25T04:53:34.014Z,0.54
2023-01-25T04:54:33.997Z,0.54
2023-01-25T04:55:33.983Z,0.53
2023-01-25T04:56:33.904Z,0.52
2023-01-25T04:57:33.859Z,0.53
2023-01-25T04:58:33.811Z,0.53
2023-01-25T04:59:33.762Z,0.54
2023-01-25T05:00:33.719Z,0.55
2023-01-25T05:01:33.773Z,0.54
2023-01-25T05:02:33.668Z,0.53
2023-01-25T05:03:33.594Z,0.54
2023-01-25T05:04:33.546Z,0.55
2023-01-25T05:05:33.511Z,0.53
2023-01-25T05:06:33.466Z,0.53
2023-01-25T05:07:33.423Z,0.54
2023-01-25T05:08:33.377Z,0.54
2023-01-25T05:09:33.335Z,0.54
2023-01-25T05:10:33.323Z,0.54
2023-01-25T05:11:33.251Z,0.54
2023-01-25T05:12:33.217Z,0.54
2023-01-25T05:13:33.157Z,0.54
2023-01-25T05:14:33.115Z,0.54
2023-01-25T05:15:33.079Z,0.54
2023-01-25T05:16:33.065Z,0.53
2023-01-25T05:17:32.987Z,0.54
2023-01-25T05:18:47.122Z,0.53
2023-01-25T05:19:32.901Z,0.54
2023-01-25T05:20:32.856Z,0.54
2023-01-25T05:21:32.812Z,0.54
2023-01-25T05:22:32.767Z,0.55
2023-01-25T05:23:32.727Z,0.55
2023-01-25T05:24:32.715Z,0.54
2023-01-25T05:25:32.656Z,0.54
2023-01-25T05:26:32.624Z,0.54
2023-01-25T05:27:32.563Z,0.55
2023-01-25T05:28:32.517Z,0.55
2023-01-25T05:29:32.481Z,0.54
2023-01-25T05:30:32.442Z,0.55
2023-01-25T05:31:32.399Z,0.55
2023-01-25T05:32:32.347Z,0.54
2023-01-25T05:33:32.304Z,0.55
2023-01-25T05:34:32.273Z,0.55
2023-01-25T05:35:32.233Z,0.54
2023-01-25T05:36:32.191Z,0.54
2023-01-25T05:37:32.143Z,0.54
2023-01-25T05:38:32.099Z,0.54
2023-01-25T05:39:32.073Z,0.55
2023-01-25T05:40:32.019Z,0.55
2023-01-25T05:41:31.980Z,0.54
2023-01-25T05:42:31.961Z,0.55
2023-01-25T05:43:31.883Z,0.54
2023-01-25T05:44:31.840Z,0.54
2023-01-25T05:45:31.797Z,0.54
2023-01-25T05:46:31.844Z,0.55
2023-01-25T05:47:31.719Z,0.55
2023-01-25T05:48:31.664Z,0.54
2023-01-25T05:49:31.620Z,0.55
2023-01-25T05:50:31.573Z,0.55
2023-01-25T05:51:31.542Z,0.55
2023-01-25T05:52:31.480Z,0.55
2023-01-25T05:53:31.432Z,0.55
2023-01-25T05:54:31.386Z,0.54
2023-01-25T05:55:31.359Z,0.55
2023-01-25T05:56:31.305Z,0.54
2023-01-25T05:57:31.246Z,0.55
2023-01-25T05:58:31.226Z,0.55
2023-01-25T05:59:31.163Z,0.55
2023-01-25T06:00:31.113Z,0.55
2023-01-25T06:01:31.065Z,0.54
2023-01-25T06:02:31.212Z,0.55
2023-01-25T06:03:31.095Z,0.54
2023-01-25T06:04:30.940Z,0.55
2023-01-25T06:05:31.344Z,0.55
2023-01-25T06:06:30.846Z,0.55
2023-01-25T06:07:30.805Z,0.55
2023-01-25T06:08:30.765Z,0.55
2023-01-25T06:09:30.728Z,0.56
2023-01-25T06:10:30.722Z,0.55
2023-01-25T06:11:30.652Z,0.55
2023-01-25T06:12:30.601Z,0.55
2023-01-25T06:13:30.573Z,0.55
2023-01-25T06:14:30.565Z,0.54
2023-01-25T06:15:30.501Z,0.55
2023-01-25T06:16:30.834Z,0.56
2023-01-25T06:17:30.429Z,0.55
2023-01-25T06:18:31.282Z,0.55
2023-01-25T06:19:30.346Z,0.56
2023-01-25T06:20:30.312Z,0.55
2023-01-25T06:21:30.277Z,0.55
2023-01-25T06:22:30.236Z,0.57
2023-01-25T06:23:30.199Z,0.55
2023-01-25T06:24:30.213Z,0.55
2023-01-25T06:25:30.130Z,0.56
2023-01-25T06:26:30.091Z,0.55
2023-01-25T06:27:30.061Z,0.58
2023-01-25T06:28:30.007Z,0.61
2023-01-25T06:29:29.971Z,0.63
2023-01-25T06:30:30.001Z,0.63
2023-01-25T06:31:30.063Z,0.63
2023-01-25T06:32:30.342Z,0.61
2023-01-25T06:33:29.803Z,0.60
2023-01-25T06:34:29.761Z,0.62
2023-01-25T06:35:29.905Z,0.62
2023-01-25T06:36:29.692Z,0.63
2023-01-25T06:37:29.637Z,0.62
2023-01-25T06:38:29.605Z,0.62
2023-01-25T06:39:29.832Z,0.61
2023-01-25T06:40:30.246Z,0.63
2023-01-25T06:41:29.466Z,0.63
2023-01-25T06:42:29.441Z,0.63
2023-01-25T06:43:29.843Z,0.64
2023-01-25T06:44:29.341Z,0.63
2023-01-25T06:45:29.295Z,0.63
2023-01-25T06:46:29.344Z,0.64
2023-01-25T06:47:29.223Z,0.65
2023-01-25T06:48:29.177Z,0.65
2023-01-25T06:49:29.133Z,0.68
2023-01-25T06:50:29.091Z,0.67
2023-01-25T06:51:29.045Z,0.67
2023-01-25T06:52:28.997Z,0.67
2023-01-25T06:53:28.957Z,0.68
2023-01-25T06:54:28.933Z,0.69
2023-01-25T06:55:29.359Z,0.69
2023-01-25T06:56:28.841Z,0.69
2023-01-25T06:57:28.789Z,0.72
2023-01-25T06:58:28.779Z,0.76
2023-01-25T06:59:28.733Z,0.76
2023-01-25T07:00:28.691Z,0.77
2023-01-25T07:01:28.960Z,0.81
2023-01-25T07:02:28.676Z,0.82
2023-01-25T07:03:28.550Z,0.87
2023-01-25T07:04:28.841Z,1.22
2023-01-25T07:05:28.500Z,1.11
2023-01-25T07:06:29.851Z,1.09
2023-01-25T07:07:28.845Z,1.14
2023-01-25T07:08:28.661Z,1.13
2023-01-25T07:09:31.538Z,1.16
2023-01-25T07:10:28.346Z,1.16
2023-01-25T07:11:28.261Z,1.16
2023-01-25T07:12:28.217Z,1.15
2023-01-25T07:13:28.174Z,1.17
2023-01-25T07:14:28.443Z,1.20
2023-01-25T07:15:28.092Z,1.23
2023-01-25T07:16:28.046Z,1.26
2023-01-25T07:17:28.000Z,1.29
2023-01-25T07:18:27.984Z,1.33
2023-01-25T07:19:28.347Z,1.33
2023-01-25T07:20:27.878Z,1.39
2023-01-25T07:21:27.823Z,1.38
2023-01-25T07:22:27.768Z,1.44
2023-01-25T07:23:27.727Z,1.47
2023-01-25T07:24:27.874Z,1.51
2023-01-25T07:25:27.629Z,1.52
2023-01-25T07:26:27.575Z,1.53
2023-01-25T07:27:27.530Z,1.56
2023-01-25T07:28:27.477Z,1.59
2023-01-25T07:29:27.848Z,1.62
2023-01-25T07:30:27.438Z,1.62
2023-01-25T07:31:27.411Z,1.67
2023-01-25T07:32:27.298Z,1.67
2023-01-25T07:33:27.236Z,1.66
2023-01-25T07:34:27.375Z,1.70
2023-01-25T07:35:27.161Z,1.71
2023-01-25T07:36:27.111Z,1.74
2023-01-25T07:37:27.053Z,1.77
2023-01-25T07:38:27.011Z,1.77
2023-01-25T07:39:27.356Z,1.82
2023-01-25T07:40:27.373Z,1.87
2023-01-25T07:41:26.859Z,1.86
2023-01-25T07:42:27.045Z,1.89
2023-01-25T07:43:26.770Z,1.90
2023-01-25T07:44:26.742Z,1.95
2023-01-25T07:45:26.849Z,1.95
2023-01-25T07:46:26.632Z,1.95
2023-01-25T07:47:26.848Z,1.93
2023-01-25T07:48:26.538Z,1.95
2023-01-25T07:49:26.517Z,1.95
2023-01-25T07:50:26.529Z,1.92
2023-01-25T07:51:26.400Z,1.94
2023-01-25T07:52:26.336Z,1.94
2023-01-25T07:53:26.284Z,1.93
2023-01-25T07:54:26.236Z,1.91
2023-01-25T07:55:26.179Z,1.91
2023-01-25T07:56:26.132Z,1.87
2023-01-25T07:57:26.381Z,1.90
2023-01-25T07:58:26.080Z,1.88
2023-01-25T07:59:26.017Z,1.85
2023-01-25T08:00:26.441Z,1.84
2023-01-25T08:01:26.355Z,1.83
2023-01-25T08:02:25.853Z,1.80
2023-01-25T08:03:25.810Z,1.81
2023-01-25T08:04:25.781Z,1.79
2023-01-25T08:05:25.860Z,1.75
2023-01-25T08:06:25.883Z,1.73
2023-01-25T08:07:25.645Z,1.72
2023-01-25T08:08:25.585Z,1.70
2023-01-25T08:09:25.541Z,1.69
2023-01-25T08:10:25.642Z,1.68
2023-01-25T08:11:25.857Z,1.68
2023-01-25T08:12:25.413Z,1.67
2023-01-25T08:14:25.332Z,1.65
2023-01-25T08:15:25.280Z,1.65
2023-01-25T08:16:25.229Z,1.64
2023-01-25T08:17:25.190Z,1.63
2023-01-25T08:18:25.558Z,1.60
2023-01-25T08:19:25.793Z,1.62
2023-01-25T08:20:25.353Z,1.57
2023-01-25T08:21:25.650Z,1.56
2023-01-25T08:22:24.979Z,1.57
2023-01-25T08:23:24.904Z,1.54
2023-01-25T08:24:25.649Z,1.52
2023-01-25T08:25:24.805Z,1.52
2023-01-25T08:26:24.755Z,1.51
2023-01-25T08:27:24.707Z,1.49
2023-01-25T08:28:24.663Z,1.47
2023-01-25T08:29:24.868Z,1.47
2023-01-25T08:30:24.589Z,1.48
2023-01-25T08:31:24.834Z,1.45
2023-01-25T08:32:24.478Z,1.44
2023-01-25T08:33:24.445Z,1.44
2023-01-25T08:34:24.895Z,1.43
2023-01-25T08:35:24.351Z,1.40
2023-01-25T08:36:24.455Z,1.43
2023-01-25T08:37:24.276Z,1.40
2023-01-25T08:38:24.409Z,1.40
2023-01-25T08:39:24.172Z,1.38
2023-01-25T08:40:24.113Z,1.38
2023-01-25T08:41:24.080Z,1.45
2023-01-25T08:42:24.036Z,1.48
2023-01-25T08:43:24.410Z,1.50
2023-01-25T08:44:23.927Z,1.52
2023-01-25T08:45:23.895Z,1.57
2023-01-25T08:46:23.862Z,1.59
2023-01-25T08:47:23.760Z,1.64
2023-01-25T08:48:23.871Z,1.64
2023-01-25T08:49:23.871Z,1.64
2023-01-25T08:50:23.607Z,1.65
2023-01-25T08:51:23.567Z,1000.00
2023-01-25T08:52:23.881Z,1000.00
2023-01-25T08:53:24.509Z,1000.00
2023-01-25T08:54:23.907Z,1000.00
2023-01-25T08:55:23.359Z,1000.00
2023-01-25T08:56:23.297Z,1000.00
2023-01-25T08:57:23.251Z,854.49
2023-01-25T08:58:23.379Z,334.80
2023-01-25T08:59:23.151Z,184.92
2023-01-25T09:00:23.110Z,117.95
2023-01-25T09:01:23.056Z,96.17
2023-01-25T09:02:23.000Z,81.32
2023-01-25T09:03:23.408Z,57.38
2023-01-25T09:04:22.949Z,44.01
2023-01-25T09:05:22.856Z,38.69
2023-01-25T09:06:22.796Z,33.43
2023-01-25T09:07:22.876Z,29.56
2023-01-25T09:08:22.686Z,29.46
2023-01-25T09:09:22.645Z,26.25
2023-01-25T09:10:22.615Z,23.68
2023-01-25T09:11:22.554Z,21.67
2023-01-25T09:12:22.886Z,19.57
2023-01-25T09:13:22.464Z,18.38
2023-01-25T09:14:22.391Z,17.12
2023-01-25T09:15:22.344Z,16.19
2023-01-25T09:16:22.378Z,14.97
2023-01-25T09:17:22.395Z,14.32
2023-01-25T09:18:22.209Z,13.38
2023-01-25T09:19:22.160Z,12.69
2023-01-25T09:20:22.106Z,12.15
2023-01-25T09:21:22.243Z,11.29
2023-01-25T09:22:22.008Z,10.75
2023-01-25T09:23:21.954Z,10.38
2023-01-25T09:24:22.513Z,10.16
2023-01-25T09:25:21.857Z,9.53
2023-01-25T09:26:21.851Z,9.38
2023-01-25T09:27:21.769Z,8.78
2023-01-25T09:28:21.733Z,8.66
2023-01-25T09:29:21.669Z,8.21
2023-01-25T09:30:24.680Z,8.03
2023-01-25T09:31:23.607Z,8.04
2023-01-25T09:32:21.757Z,8.03
2023-01-25T09:33:21.470Z,7.57
2023-01-25T09:34:21.888Z,7.36
2023-01-25T09:35:21.392Z,7.01
2023-01-25T09:36:21.341Z,6.75
2023-01-25T09:37:21.303Z,6.68
2023-01-25T09:38:21.240Z,6.40
2023-01-25T09:39:21.396Z,6.22
2023-01-25T09:40:21.400Z,6.11
2023-01-25T09:41:21.090Z,5.95
2023-01-25T09:42:21.554Z,5.66
2023-01-25T09:43:20.993Z,5.68
2023-01-25T09:44:20.992Z,5.57
2023-01-25T09:45:22.423Z,5.43
2023-01-25T09:46:20.956Z,5.31
2023-01-25T09:47:20.840Z,5.14
2023-01-25T09:48:20.979Z,4.95
2023-01-25T09:49:21.985Z,4.89
2023-01-25T09:50:20.742Z,5.01
2023-01-25T09:51:21.677Z,5.96
2023-01-25T09:52:20.927Z,5.61
2023-01-25T09:53:21.568Z,5.02
2023-01-25T09:54:20.510Z,4.67
2023-01-25T09:55:20.935Z,4.65
2023-01-25T09:56:21.466Z,4.56
2023-01-25T09:57:20.404Z,4.41
2023-01-25T09:58:20.383Z,4.33
2023-01-25T09:59:20.321Z,4.27
2023-01-25T10:00:20.278Z,4.15
2023-01-25T10:01:29.655Z,4.07
2023-01-25T10:02:20.239Z,4.08
2023-01-25T10:03:20.134Z,4.08
2023-01-25T10:04:20.075Z,4.17
2023-01-25T10:05:21.447Z,4.16
2023-01-25T10:06:20.314Z,4.12
2023-01-25T10:07:19.942Z,3.93
2023-01-25T10:08:19.911Z,3.80
2023-01-25T10:09:19.824Z,3.76
2023-01-25T10:10:19.926Z,3.71
2023-01-25T10:11:19.727Z,3.61
2023-01-25T10:12:19.690Z,3.54
2023-01-25T10:13:19.637Z,3.53
2023-01-25T10:14:20.430Z,3.46
2023-01-25T10:15:20.201Z,3.40
2023-01-25T10:16:25.691Z,3.36
2023-01-25T10:17:19.571Z,3.37
2023-01-25T10:18:19.822Z,3.37
2023-01-25T10:19:19.379Z,3.27
2023-01-25T10:20:19.424Z,3.30
2023-01-25T10:21:19.320Z,3.17
2023-01-25T10:22:19.263Z,3.13
2023-01-25T10:23:19.187Z,3.02
2023-01-25T10:24:19.223Z,3.08
2023-01-25T10:25:19.411Z,2.98
2023-01-25T10:26:19.067Z,2.99
2023-01-25T10:27:19.020Z,2.89
2023-01-25T10:28:18.996Z,2.87
2023-01-25T10:29:18.940Z,2.36
2023-01-25T10:30:19.431Z,1.70
2023-01-25T10:31:19.127Z,1.65
2023-01-25T10:32:18.857Z,1.57
2023-01-25T10:33:18.880Z,1.39
2023-01-25T10:34:18.865Z,1.25
2023-01-25T10:35:34.463Z,1.12
2023-01-25T10:36:18.862Z,1.06
2023-01-25T10:37:19.829Z,0.98
2023-01-25T10:38:18.820Z,0.95
2023-01-25T10:39:18.836Z,0.99
2023-01-25T10:40:21.240Z,0.98
2023-01-25T10:41:18.822Z,0.98
2023-01-25T10:42:18.784Z,0.94
2023-01-25T10:43:18.786Z,0.86
2023-01-25T10:44:18.771Z,0.86
2023-01-25T10:45:18.958Z,0.82
2023-01-25T10:46:18.996Z,0.84
2023-01-25T10:47:18.736Z,0.84
2023-01-25T10:48:18.688Z,0.88
2023-01-25T10:49:19.068Z,0.88
2023-01-25T10:50:18.633Z,0.91
2023-01-25T10:51:18.940Z,0.96
2023-01-25T10:52:18.613Z,1.02
2023-01-25T10:53:18.580Z,1.02
2023-01-25T10:54:18.483Z,1.03
2023-01-25T10:55:18.494Z,1.07
2023-01-25T10:56:18.452Z,1.10
2023-01-25T10:57:18.402Z,1.14
2023-01-25T10:58:18.550Z,1.12
2023-01-25T10:59:18.335Z,1.16
2023-01-25T11:00:18.307Z,1.21
2023-01-25T11:01:18.521Z,1.21
2023-01-25T11:02:18.261Z,1.22
2023-01-25T11:03:18.164Z,1.25
2023-01-25T11:04:18.119Z,1.26
2023-01-25T11:05:18.105Z,1.29
2023-01-25T11:06:18.451Z,1.31
2023-01-25T11:07:17.992Z,1.35
2023-01-25T11:08:17.952Z,1.38
2023-01-25T11:09:18.141Z,1.36
2023-01-25T11:10:17.908Z,1.38
2023-01-25T11:11:18.032Z,1.32
2023-01-25T11:12:17.794Z,1.09
2023-01-25T11:13:17.931Z,1.10
2023-01-25T11:14:17.699Z,1.24
2023-01-25T11:15:17.658Z,1.28
2023-01-25T11:16:17.665Z,1.31
2023-01-25T11:17:17.593Z,1.28
2023-01-25T11:18:17.627Z,1.27
2023-01-25T11:19:17.516Z,1.26
2023-01-25T11:20:17.516Z,1.26
2023-01-25T11:21:17.923Z,1.26
2023-01-25T11:22:17.413Z,1.29
2023-01-25T11:23:17.365Z,1.28
2023-01-25T11:24:17.373Z,1.29
2023-01-25T11:25:17.423Z,1.28
2023-01-25T11:26:17.254Z,1.32
2023-01-25T11:27:17.204Z,1.31
2023-01-25T11:28:17.215Z,1.32
2023-01-25T11:29:17.142Z,1.35
2023-01-25T11:30:17.428Z,1.34
2023-01-25T11:31:17.193Z,1.36
2023-01-25T11:32:16.995Z,1.37
2023-01-25T11:33:16.998Z,1.37
2023-01-25T11:34:16.948Z,1.38
2023-01-25T11:35:16.938Z,1.41
2023-01-25T11:36:16.831Z,1.40
2023-01-25T11:37:16.795Z,1.41
2023-01-25T11:38:16.739Z,1.43
2023-01-25T11:39:16.977Z,1.44
2023-01-25T11:40:16.653Z,1.46
2023-01-25T11:41:17.617Z,1.47
2023-01-25T11:42:16.565Z,1.48
2023-01-25T11:43:16.529Z,1.49
2023-01-25T11:44:16.486Z,1.52
2023-01-25T11:45:16.934Z,1.53
2023-01-25T11:46:16.405Z,1.55
2023-01-25T11:47:17.055Z,1.54
2023-01-25T11:48:16.312Z,1.44
2023-01-25T11:49:16.264Z,1.33
2023-01-25T11:50:16.244Z,1.18
2023-01-25T11:51:16.196Z,1.28
2023-01-25T11:52:16.145Z,1.39
2023-01-25T11:53:16.100Z,1.38
2023-01-25T11:54:16.059Z,1.32
2023-01-25T11:55:16.003Z,1.29
2023-01-25T11:56:16.456Z,1.29
2023-01-25T11:57:15.910Z,1.26
2023-01-25T11:58:15.969Z,1.27
2023-01-25T11:59:15.831Z,1.26
2023-01-25T12:00:15.762Z,1.25
2023-01-25T12:01:15.936Z,1.26
2023-01-25T12:02:15.688Z,1.28
2023-01-25T12:03:16.911Z,1.29
2023-01-25T12:04:15.641Z,1.29
2023-01-25T12:05:21.593Z,1.28
2023-01-25T12:06:15.726Z,1.28
2023-01-25T12:07:15.417Z,1.29
2023-01-25T12:08:15.385Z,1.30
2023-01-25T12:09:15.321Z,1.32
2023-01-25T12:10:15.284Z,1.34
2023-01-25T12:11:15.231Z,1.32
2023-01-25T12:12:15.182Z,1.36
2023-01-25T12:13:15.136Z,1.37
2023-01-25T12:14:15.097Z,1.34
2023-01-25T12:15:15.481Z,1.38
2023-01-25T12:16:15.039Z,1.38
2023-01-25T12:17:14.941Z,1.37
2023-01-25T12:18:14.896Z,1.39
2023-01-25T12:19:14.857Z,1.33
2023-01-25T12:20:14.945Z,1.34
2023-01-25T12:21:22.870Z,1.34
2023-01-25T12:22:14.763Z,1.35
2023-01-25T12:23:14.948Z,1.36
2023-01-25T12:24:14.682Z,1.37
2023-01-25T12:25:14.590Z,1.42
2023-01-25T12:26:14.549Z,1.57
2023-01-25T12:27:14.507Z,1.64
2023-01-25T12:28:14.472Z,1.76
2023-01-25T12:29:14.430Z,1.84
2023-01-25T12:30:14.396Z,1.81
2023-01-25T12:31:14.438Z,1.81
2023-01-25T12:32:14.307Z,1.84
2023-01-25T12:33:15.062Z,1.83
2023-01-25T12:34:14.236Z,1.85
2023-01-25T12:35:14.185Z,1.83
2023-01-25T12:36:14.149Z,1.84
2023-01-25T12:37:14.450Z,1.82
2023-01-25T12:38:14.091Z,1.84
2023-01-25T12:39:14.019Z,1.85
2023-01-25T12:40:13.997Z,1.85
2023-01-25T12:41:13.940Z,1.85
2023-01-25T12:42:13.900Z,1.86
2023-01-25T12:43:13.854Z,1.88
2023-01-25T12:44:13.812Z,1.88
2023-01-25T12:45:13.963Z,1.89
2023-01-25T12:46:13.888Z,1.93
2023-01-25T12:47:15.089Z,1.93
2023-01-25T12:48:13.655Z,2.03
2023-01-25T12:49:13.617Z,2.06
2023-01-25T12:50:13.996Z,2.06
2023-01-25T12:51:13.536Z,2.04
2023-01-25T12:52:13.506Z,2.08
2023-01-25T12:53:13.439Z,2.12
2023-01-25T12:54:13.425Z,2.13
2023-01-25T12:55:13.349Z,2.14
2023-01-25T12:56:13.301Z,2.12
2023-01-25T12:57:13.262Z,2.19
2023-01-25T12:58:13.230Z,2.28
2023-01-25T12:59:13.167Z,2.23
2023-01-25T13:00:13.324Z,2.25
2023-01-25T13:01:13.116Z,2.27
2023-01-25T13:02:13.097Z,2.27
2023-01-25T13:03:12.997Z,2.28
2023-01-25T13:04:12.927Z,2.31
2023-01-25T13:05:12.957Z,2.31
2023-01-25T13:06:12.962Z,2.26
2023-01-25T13:07:12.770Z,2.25
2023-01-25T13:08:23.050Z,2.27
2023-01-25T13:09:12.752Z,2.27
2023-01-25T13:10:12.940Z,2.22
2023-01-25T13:11:12.585Z,1.59
2023-01-25T13:12:12.542Z,1.16
2023-01-25T13:13:12.502Z,1.15
2023-01-25T13:14:12.451Z,1.15
2023-01-25T13:15:12.399Z,1.29
2023-01-25T13:16:12.396Z,1.33
2023-01-25T13:17:12.491Z,1.37
2023-01-25T13:18:12.280Z,1.37
2023-01-25T13:19:12.242Z,1.33
2023-01-25T13:20:12.781Z,1.31
2023-01-25T13:21:12.159Z,1.29
2023-01-25T13:22:12.130Z,1.27
2023-01-25T13:23:12.079Z,1.29
2023-01-25T13:24:12.149Z,1.93
2023-01-25T13:25:12.202Z,1.71
2023-01-25T13:26:12.000Z,1.65
2023-01-25T13:27:11.895Z,1.57
2023-01-25T13:28:11.972Z,1.50
2023-01-25T13:29:11.818Z,1.49
2023-01-25T13:30:12.297Z,1.50
2023-01-25T13:31:11.863Z,1.49
2023-01-25T13:32:11.773Z,1.48
2023-01-25T13:33:11.644Z,1.47
2023-01-25T13:34:11.605Z,1.50
2023-01-25T13:35:11.555Z,1.52
2023-01-25T13:36:11.503Z,1.50
2023-01-25T13:37:11.470Z,1.50
2023-01-25T13:38:11.471Z,1.70
2023-01-25T13:39:11.339Z,1.80
2023-01-25T13:40:11.683Z,1.82
2023-01-25T13:41:11.244Z,1.84
2023-01-25T13:42:11.226Z,1.79
2023-01-25T13:43:11.473Z,1.79
2023-01-25T13:44:11.077Z,1.79
2023-01-25T13:45:11.753Z,1.75
2023-01-25T13:46:10.976Z,1.73
2023-01-25T13:47:10.933Z,1.76
2023-01-25T13:48:10.877Z,1.75
2023-01-25T13:49:10.823Z,1.74
2023-01-25T13:50:11.525Z,1.75
2023-01-25T13:51:10.725Z,1.76
2023-01-25T13:52:10.671Z,1.78
2023-01-25T13:53:10.628Z,1.79
2023-01-25T13:54:10.580Z,1.70
2023-01-25T13:55:10.977Z,1.21
2023-01-25T13:56:10.505Z,0.83
2023-01-25T13:57:10.676Z,0.80
2023-01-25T13:58:10.467Z,0.84
2023-01-25T13:59:10.380Z,0.84
2023-01-25T14:00:11.239Z,0.85
2023-01-25T14:01:10.399Z,0.83
2023-01-25T14:02:10.340Z,0.80
2023-01-25T14:03:10.253Z,0.78
2023-01-25T14:04:10.214Z,0.81
2023-01-25T14:05:10.483Z,0.85
2023-01-25T14:06:10.134Z,1.08
2023-01-25T14:07:10.163Z,0.93
2023-01-25T14:08:10.088Z,0.98
2023-01-25T14:09:10.029Z,1.00
2023-01-25T14:10:10.959Z,1.01
2023-01-25T14:11:09.951Z,1.01
2023-01-25T14:12:09.983Z,1.00
2023-01-25T14:13:09.874Z,0.99
2023-01-25T14:14:09.889Z,0.99
2023-01-25T14:15:09.982Z,0.97
2023-01-25T14:16:09.806Z,1.01
2023-01-25T14:17:09.998Z,0.99
2023-01-25T14:18:09.668Z,1.01
2023-01-25T14:19:09.623Z,1.00
2023-01-25T14:20:09.940Z,1.03
2023-01-25T14:21:09.986Z,1.04
2023-01-25T14:22:09.514Z,1.07
2023-01-25T14:23:09.461Z,1.07
2023-01-25T14:24:09.548Z,1.09
2023-01-25T14:25:09.386Z,1.08
2023-01-25T14:26:09.353Z,1.06
2023-01-25T14:27:09.323Z,0.97
2023-01-25T14:28:09.278Z,0.89
2023-01-25T14:29:14.167Z,0.79
2023-01-25T14:30:09.406Z,0.79
2023-01-25T14:31:09.146Z,0.76
2023-01-25T14:32:09.590Z,0.74
2023-01-25T14:33:09.066Z,0.74
2023-01-25T14:34:09.026Z,0.70
2023-01-25T14:35:08.986Z,0.72
2023-01-25T14:36:24.008Z,0.64
2023-01-25T14:37:08.898Z,0.64
2023-01-25T14:38:08.864Z,0.65
2023-01-25T14:39:08.832Z,0.64
2023-01-25T14:40:09.222Z,0.63
2023-01-25T14:41:08.754Z,0.66
2023-01-25T14:42:08.722Z,0.64
2023-01-25T14:43:08.993Z,0.58
2023-01-25T14:44:08.641Z,0.60
2023-01-25T14:45:08.600Z,0.62
2023-01-25T14:46:08.617Z,0.61
2023-01-25T14:47:08.516Z,0.60
2023-01-25T14:48:08.476Z,0.60
2023-01-25T14:49:08.453Z,0.61